sensor_id;sensor_type;location;lat;lon;timestamp;pressure;altitude;pressure_sealevel;temperature;humidity
12475;BME280;6302;42.624;23.334;2023-02-18T00:02:16;93968.53;;;5.11;78.30
12475;BME280;6302;42.624;23.334;2023-02-18T00:04:43;93979.72;;;5.08;78.27
12475;BME280;6302;42.624;23.334;2023-02-18T00:07:09;93978.19;;;5.07;78.04
12475;BME280;6302;42.624;23.334;2023-02-18T00:09:37;93974.31;;;5.01;76.47
12475;BME280;6302;42.624;23.334;2023-02-18T00:12:04;93972.25;;;5.10;76.66
12475;BME280;6302;42.624;23.334;2023-02-18T00:14:31;93961.31;;;5.08;77.39
12475;BME280;6302;42.624;23.334;2023-02-18T00:16:59;93954.94;;;5.09;77.59
12475;BME280;6302;42.624;23.334;2023-02-18T00:19:26;93951.06;;;5.03;78.16
12475;BME280;6302;42.624;23.334;2023-02-18T00:21:52;93952.78;;;4.95;78.79
12475;BME280;6302;42.624;23.334;2023-02-18T00:24:19;93955.41;;;4.95;79.02
12475;BME280;6302;42.624;23.334;2023-02-18T00:26:49;93938.72;;;4.88;78.72
12475;BME280;6302;42.624;23.334;2023-02-18T00:29:16;93935.00;;;4.89;78.43
12475;BME280;6302;42.624;23.334;2023-02-18T00:31:43;93926.84;;;4.94;78.39
12475;BME280;6302;42.624;23.334;2023-02-18T00:34:12;93922.28;;;4.91;79.04
12475;BME280;6302;42.624;23.334;2023-02-18T00:36:39;93915.50;;;4.90;79.30
12475;BME280;6302;42.624;23.334;2023-02-18T00:39:07;93913.22;;;4.88;78.49
12475;BME280;6302;42.624;23.334;2023-02-18T00:41:35;93912.03;;;4.86;79.04
12475;BME280;6302;42.624;23.334;2023-02-18T00:44:02;93910.75;;;4.80;80.79
12475;BME280;6302;42.624;23.334;2023-02-18T00:46:28;93911.78;;;4.75;79.40
12475;BME280;6302;42.624;23.334;2023-02-18T00:48:55;93924.56;;;4.77;80.20
12475;BME280;6302;42.624;23.334;2023-02-18T00:51:24;93918.72;;;4.68;81.18
12475;BME280;6302;42.624;23.334;2023-02-18T00:53:51;93930.00;;;4.68;81.57
12475;BME280;6302;42.624;23.334;2023-02-18T00:56:18;93928.22;;;4.56;82.10
12475;BME280;6302;42.624;23.334;2023-02-18T00:58:44;93926.94;;;4.50;83.18
12475;BME280;6302;42.624;23.334;2023-02-18T01:01:12;93931.75;;;4.48;83.47
12475;BME280;6302;42.624;23.334;2023-02-18T01:03:40;93924.13;;;4.43;83.48
12475;BME280;6302;42.624;23.334;2023-02-18T01:06:09;93933.19;;;4.46;84.30
12475;BME280;6302;42.624;23.334;2023-02-18T01:08:38;93926.41;;;4.45;84.26
12475;BME280;6302;42.624;23.334;2023-02-18T01:11:07;93934.22;;;4.41;84.56
12475;BME280;6302;42.624;23.334;2023-02-18T01:13:35;93920.22;;;4.37;84.49
12475;BME280;6302;42.624;23.334;2023-02-18T01:16:02;93913.22;;;4.41;84.38
12475;BME280;6302;42.624;23.334;2023-02-18T01:18:29;93928.63;;;4.43;84.71
12475;BME280;6302;42.624;23.334;2023-02-18T01:20:56;93915.41;;;4.39;84.42
12475;BME280;6302;42.624;23.334;2023-02-18T01:23:24;93921.09;;;4.41;84.47
12475;BME280;6302;42.624;23.334;2023-02-18T01:25:52;93926.00;;;4.43;84.25
12475;BME280;6302;42.624;23.334;2023-02-18T01:28:19;93921.41;;;4.40;84.24
12475;BME280;6302;42.624;23.334;2023-02-18T01:30:49;93922.94;;;4.41;84.22
12475;BME280;6302;42.624;23.334;2023-02-18T01:33:16;93914.31;;;4.40;84.25
12475;BME280;6302;42.624;23.334;2023-02-18T01:35:43;93923.03;;;4.44;83.86
12475;BME280;6302;42.624;23.334;2023-02-18T01:38:10;93907.63;;;4.43;84.77
12475;BME280;6302;42.624;23.334;2023-02-18T01:40:44;93900.41;;;4.40;85.15
12475;BME280;6302;42.624;23.334;2023-02-18T01:43:14;93913.47;;;4.36;85.23
12475;BME280;6302;42.624;23.334;2023-02-18T01:46:03;93916.16;;;4.40;84.95
12475;BME280;6302;42.624;23.334;2023-02-18T01:48:33;93902.47;;;4.46;84.46
12475;BME280;6302;42.624;23.334;2023-02-18T01:51:05;93919.66;;;4.44;83.90
12475;BME280;6302;42.624;23.334;2023-02-18T01:53:38;93918.88;;;4.43;83.54
12475;BME280;6302;42.624;23.334;2023-02-18T01:56:09;93932.09;;;4.47;83.60
12475;BME280;6302;42.624;23.334;2023-02-18T01:58:38;93923.88;;;4.48;82.86
12475;BME280;6302;42.624;23.334;2023-02-18T02:01:05;93930.56;;;4.46;83.53
12475;BME280;6302;42.624;23.334;2023-02-18T02:03:32;93946.75;;;4.48;83.07
12475;BME280;6302;42.624;23.334;2023-02-18T02:05:59;93943.47;;;4.23;85.61
12475;BME280;6302;42.624;23.334;2023-02-18T02:08:27;93946.09;;;4.23;86.10
12475;BME280;6302;42.624;23.334;2023-02-18T02:11:03;93940.09;;;4.23;86.78
12475;BME280;6302;42.624;23.334;2023-02-18T02:13:43;93929.94;;;4.21;86.42
12475;BME280;6302;42.624;23.334;2023-02-18T02:16:16;93930.25;;;4.20;87.36
12475;BME280;6302;42.624;23.334;2023-02-18T02:18:53;93924.94;;;4.16;87.58
12475;BME280;6302;42.624;23.334;2023-02-18T02:25:01;93895.50;;;4.07;88.37
12475;BME280;6302;42.624;23.334;2023-02-18T02:27:44;93900.97;;;4.02;88.98
12475;BME280;6302;42.624;23.334;2023-02-18T02:30:43;93901.09;;;3.93;89.11
12475;BME280;6302;42.624;23.334;2023-02-18T02:33:41;93907.84;;;3.79;90.81
12475;BME280;6302;42.624;23.334;2023-02-18T02:36:15;93899.13;;;3.75;91.21
12475;BME280;6302;42.624;23.334;2023-02-18T02:38:53;93897.59;;;3.74;91.03
12475;BME280;6302;42.624;23.334;2023-02-18T02:41:31;93905.44;;;3.74;90.86
12475;BME280;6302;42.624;23.334;2023-02-18T02:44:06;93890.81;;;3.73;91.18
12475;BME280;6302;42.624;23.334;2023-02-18T02:46:39;93912.66;;;3.77;90.73
12475;BME280;6302;42.624;23.334;2023-02-18T02:49:13;93895.38;;;3.76;90.90
12475;BME280;6302;42.624;23.334;2023-02-18T02:51:53;93893.88;;;3.75;91.32
12475;BME280;6302;42.624;23.334;2023-02-18T02:54:24;93879.66;;;3.76;91.47
12475;BME280;6302;42.624;23.334;2023-02-18T02:57:04;93870.06;;;3.80;91.19
12475;BME280;6302;42.624;23.334;2023-02-18T02:59:31;93888.19;;;3.73;91.24
12475;BME280;6302;42.624;23.334;2023-02-18T03:02:18;93889.47;;;3.79;91.03
12475;BME280;6302;42.624;23.334;2023-02-18T03:05:14;93876.31;;;3.63;93.52
12475;BME280;6302;42.624;23.334;2023-02-18T03:08:06;93901.09;;;3.66;93.56
12475;BME280;6302;42.624;23.334;2023-02-18T03:10:52;93897.88;;;3.57;93.67
12475;BME280;6302;42.624;23.334;2023-02-18T03:13:32;93910.75;;;3.62;93.41
12475;BME280;6302;42.624;23.334;2023-02-18T03:16:11;93905.31;;;3.55;94.13
12475;BME280;6302;42.624;23.334;2023-02-18T03:18:42;93925.69;;;3.61;94.07
12475;BME280;6302;42.624;23.334;2023-02-18T03:21:12;93923.50;;;3.63;94.58
12475;BME280;6302;42.624;23.334;2023-02-18T03:23:45;93923.97;;;3.53;95.48
12475;BME280;6302;42.624;23.334;2023-02-18T03:26:16;93926.94;;;3.52;95.90
12475;BME280;6302;42.624;23.334;2023-02-18T03:28:44;93916.31;;;3.48;96.06
12475;BME280;6302;42.624;23.334;2023-02-18T03:31:15;93916.03;;;3.50;95.76
12475;BME280;6302;42.624;23.334;2023-02-18T03:33:47;93912.81;;;3.56;95.99
12475;BME280;6302;42.624;23.334;2023-02-18T03:36:17;93922.00;;;3.62;94.96
12475;BME280;6302;42.624;23.334;2023-02-18T03:38:50;93943.78;;;3.78;93.03
12475;BME280;6302;42.624;23.334;2023-02-18T03:41:19;93941.97;;;3.67;92.65
12475;BME280;6302;42.624;23.334;2023-02-18T03:43:50;93957.13;;;3.61;94.29
12475;BME280;6302;42.624;23.334;2023-02-18T03:46:17;93943.72;;;3.63;94.01
12475;BME280;6302;42.624;23.334;2023-02-18T03:48:44;93959.00;;;3.61;94.60
12475;BME280;6302;42.624;23.334;2023-02-18T03:51:10;93970.59;;;3.60;94.20
12475;BME280;6302;42.624;23.334;2023-02-18T03:53:37;93975.84;;;3.60;93.93
12475;BME280;6302;42.624;23.334;2023-02-18T03:56:06;93977.34;;;3.61;93.87
12475;BME280;6302;42.624;23.334;2023-02-18T03:58:33;93971.44;;;3.64;93.89
12475;BME280;6302;42.624;23.334;2023-02-18T04:01:00;93965.13;;;3.65;93.77
12475;BME280;6302;42.624;23.334;2023-02-18T04:03:26;93956.59;;;3.68;93.64
12475;BME280;6302;42.624;23.334;2023-02-18T04:05:53;93944.81;;;3.62;93.23
12475;BME280;6302;42.624;23.334;2023-02-18T04:08:20;93935.09;;;3.62;93.40
12475;BME280;6302;42.624;23.334;2023-02-18T04:10:47;93935.09;;;3.62;92.59
12475;BME280;6302;42.624;23.334;2023-02-18T04:13:15;93920.44;;;3.61;92.52
12475;BME280;6302;42.624;23.334;2023-02-18T04:15:42;93939.78;;;3.57;92.77
12475;BME280;6302;42.624;23.334;2023-02-18T04:18:09;93926.25;;;3.55;92.96
12475;BME280;6302;42.624;23.334;2023-02-18T04:20:36;93920.44;;;3.61;93.25
12475;BME280;6302;42.624;23.334;2023-02-18T04:23:03;93920.38;;;3.58;93.97
12475;BME280;6302;42.624;23.334;2023-02-18T04:25:30;93924.19;;;3.60;93.74
12475;BME280;6302;42.624;23.334;2023-02-18T04:27:56;93914.13;;;3.62;93.55
12475;BME280;6302;42.624;23.334;2023-02-18T04:30:25;93909.97;;;3.61;93.71
12475;BME280;6302;42.624;23.334;2023-02-18T04:32:52;93914.91;;;3.63;94.01
12475;BME280;6302;42.624;23.334;2023-02-18T04:35:18;93910.75;;;3.62;94.08
12475;BME280;6302;42.624;23.334;2023-02-18T04:37:45;93908.13;;;3.62;94.37
12475;BME280;6302;42.624;23.334;2023-02-18T04:40:12;93922.75;;;3.63;94.48
12475;BME280;6302;42.624;23.334;2023-02-18T04:42:39;93905.50;;;3.62;94.61
12475;BME280;6302;42.624;23.334;2023-02-18T04:45:06;93915.22;;;3.61;94.80
12475;BME280;6302;42.624;23.334;2023-02-18T04:47:35;93921.22;;;3.62;95.27
12475;BME280;6302;42.624;23.334;2023-02-18T04:50:02;93929.50;;;3.64;94.94
12475;BME280;6302;42.624;23.334;2023-02-18T04:52:29;93920.56;;;3.65;94.79
12475;BME280;6302;42.624;23.334;2023-02-18T04:54:56;93929.63;;;3.67;94.01
12475;BME280;6302;42.624;23.334;2023-02-18T04:57:22;93914.56;;;3.64;93.86
12475;BME280;6302;42.624;23.334;2023-02-18T04:59:49;93930.81;;;3.70;94.20
12475;BME280;6302;42.624;23.334;2023-02-18T05:02:18;93925.22;;;3.71;93.39
12475;BME280;6302;42.624;23.334;2023-02-18T05:04:46;93926.84;;;3.76;93.13
12475;BME280;6302;42.624;23.334;2023-02-18T05:07:13;93943.34;;;3.76;93.63
12475;BME280;6302;42.624;23.334;2023-02-18T05:09:40;93943.97;;;3.85;92.62
12475;BME280;6302;42.624;23.334;2023-02-18T05:12:07;93970.13;;;3.70;91.86
12475;BME280;6302;42.624;23.334;2023-02-18T05:14:34;93976.03;;;3.67;92.04
12475;BME280;6302;42.624;23.334;2023-02-18T05:17:01;93967.94;;;3.72;92.54
12475;BME280;6302;42.624;23.334;2023-02-18T05:19:28;93962.78;;;3.75;92.02
12475;BME280;6302;42.624;23.334;2023-02-18T05:21:56;93960.25;;;3.79;93.22
12475;BME280;6302;42.624;23.334;2023-02-18T05:24:23;93950.56;;;3.79;93.66
12475;BME280;6302;42.624;23.334;2023-02-18T05:26:49;93937.75;;;3.78;93.58
12475;BME280;6302;42.624;23.334;2023-02-18T05:29:17;93931.84;;;3.81;93.10
12475;BME280;6302;42.624;23.334;2023-02-18T05:31:44;93931.84;;;3.81;92.93
12475;BME280;6302;42.624;23.334;2023-02-18T05:34:11;93925.53;;;3.82;92.84
12475;BME280;6302;42.624;23.334;2023-02-18T05:36:38;93919.63;;;3.85;92.71
12475;BME280;6302;42.624;23.334;2023-02-18T05:39:06;93909.13;;;3.85;92.12
12475;BME280;6302;42.624;23.334;2023-02-18T05:41:33;93907.00;;;3.90;92.10
12475;BME280;6302;42.624;23.334;2023-02-18T05:43:59;93911.25;;;3.95;89.57
12475;BME280;6302;42.624;23.334;2023-02-18T05:46:44;93920.72;;;4.27;83.86
12475;BME280;6302;42.624;23.334;2023-02-18T05:49:11;93934.47;;;4.36;83.91
12475;BME280;6302;42.624;23.334;2023-02-18T05:51:37;93941.28;;;4.25;87.64
12475;BME280;6302;42.624;23.334;2023-02-18T05:54:06;93946.34;;;4.18;89.92
12475;BME280;6302;42.624;23.334;2023-02-18T05:56:32;93950.81;;;4.18;91.05
12475;BME280;6302;42.624;23.334;2023-02-18T05:58:59;93958.88;;;4.25;90.83
12475;BME280;6302;42.624;23.334;2023-02-18T06:01:26;93947.81;;;4.31;90.06
12475;BME280;6302;42.624;23.334;2023-02-18T06:03:53;93953.66;;;4.40;89.82
12475;BME280;6302;42.624;23.334;2023-02-18T06:06:21;93953.00;;;4.43;89.13
12475;BME280;6302;42.624;23.334;2023-02-18T06:08:48;93964.75;;;4.49;87.53
12475;BME280;6302;42.624;23.334;2023-02-18T06:11:16;93968.84;;;4.63;86.09
12475;BME280;6302;42.624;23.334;2023-02-18T06:13:43;93966.78;;;4.40;88.35
12475;BME280;6302;42.624;23.334;2023-02-18T06:16:10;93965.63;;;4.53;87.25
12475;BME280;6302;42.624;23.334;2023-02-18T06:18:37;93966.19;;;4.47;87.79
12475;BME280;6302;42.624;23.334;2023-02-18T06:21:04;93962.66;;;4.55;88.85
12475;BME280;6302;42.624;23.334;2023-02-18T06:23:31;93974.09;;;4.63;89.15
12475;BME280;6302;42.624;23.334;2023-02-18T06:25:58;93950.91;;;4.65;88.95
12475;BME280;6302;42.624;23.334;2023-02-18T06:28:26;93956.25;;;4.68;90.34
12475;BME280;6302;42.624;23.334;2023-02-18T06:30:52;93943.69;;;4.77;89.25
12475;BME280;6302;42.624;23.334;2023-02-18T06:33:19;93948.53;;;4.91;88.38
12475;BME280;6302;42.624;23.334;2023-02-18T06:35:53;93948.53;;;4.91;87.78
12475;BME280;6302;42.624;23.334;2023-02-18T06:38:20;93934.47;;;4.99;88.96
12475;BME280;6302;42.624;23.334;2023-02-18T06:40:47;93939.97;;;5.09;88.64
12475;BME280;6302;42.624;23.334;2023-02-18T06:43:14;93928.56;;;5.21;87.00
12475;BME280;6302;42.624;23.334;2023-02-18T06:45:43;93935.19;;;5.31;86.34
12475;BME280;6302;42.624;23.334;2023-02-18T06:48:10;93934.63;;;5.41;85.90
12475;BME280;6302;42.624;23.334;2023-02-18T06:50:36;93936.00;;;5.50;83.68
12475;BME280;6302;42.624;23.334;2023-02-18T06:53:03;93937.31;;;5.60;84.43
12475;BME280;6302;42.624;23.334;2023-02-18T06:55:30;93929.22;;;5.68;82.59
12475;BME280;6302;42.624;23.334;2023-02-18T06:57:57;93936.78;;;5.70;82.88
12475;BME280;6302;42.624;23.334;2023-02-18T07:00:24;93939.28;;;5.82;82.17
12475;BME280;6302;42.624;23.334;2023-02-18T07:02:52;93944.28;;;6.06;77.15
12475;BME280;6302;42.624;23.334;2023-02-18T07:05:19;93932.94;;;6.02;76.34
12475;BME280;6302;42.624;23.334;2023-02-18T07:07:45;93926.91;;;6.02;78.92
12475;BME280;6302;42.624;23.334;2023-02-18T07:10:12;93943.84;;;6.23;77.87
12475;BME280;6302;42.624;23.334;2023-02-18T07:12:39;93949.31;;;6.34;76.38
12475;BME280;6302;42.624;23.334;2023-02-18T07:15:06;93937.38;;;6.40;74.79
12475;BME280;6302;42.624;23.334;2023-02-18T07:17:33;93944.84;;;6.57;74.33
12475;BME280;6302;42.624;23.334;2023-02-18T07:20:01;93938.75;;;6.53;75.18
12475;BME280;6302;42.624;23.334;2023-02-18T07:22:28;93928.81;;;6.66;76.55
12475;BME280;6302;42.624;23.334;2023-02-18T07:24:55;93929.03;;;6.80;76.36
12475;BME280;6302;42.624;23.334;2023-02-18T07:27:24;93916.63;;;6.80;74.48
12475;BME280;6302;42.624;23.334;2023-02-18T07:29:50;93927.19;;;6.80;73.97
12475;BME280;6302;42.624;23.334;2023-02-18T07:32:18;93919.50;;;6.72;75.08
12475;BME280;6302;42.624;23.334;2023-02-18T07:34:45;93919.47;;;6.94;73.78
12475;BME280;6302;42.624;23.334;2023-02-18T07:37:13;93916.44;;;6.92;72.96
12475;BME280;6302;42.624;23.334;2023-02-18T07:39:40;93929.31;;;6.97;70.39
12475;BME280;6302;42.624;23.334;2023-02-18T07:42:07;93929.97;;;6.91;70.74
12475;BME280;6302;42.624;23.334;2023-02-18T07:44:34;93960.75;;;6.87;70.60
12475;BME280;6302;42.624;23.334;2023-02-18T07:47:02;93962.41;;;6.72;71.18
12475;BME280;6302;42.624;23.334;2023-02-18T07:49:29;93974.94;;;6.79;72.97
12475;BME280;6302;42.624;23.334;2023-02-18T07:51:56;93979.09;;;6.80;73.77
12475;BME280;6302;42.624;23.334;2023-02-18T07:54:25;93984.44;;;6.83;71.85
12475;BME280;6302;42.624;23.334;2023-02-18T07:56:52;93983.50;;;6.95;71.19
12475;BME280;6302;42.624;23.334;2023-02-18T07:59:20;93970.50;;;7.05;71.01
12475;BME280;6302;42.624;23.334;2023-02-18T08:01:47;93968.06;;;7.19;71.08
12475;BME280;6302;42.624;23.334;2023-02-18T08:04:13;93957.72;;;7.34;70.32
12475;BME280;6302;42.624;23.334;2023-02-18T08:06:41;93950.44;;;7.50;67.45
12475;BME280;6302;42.624;23.334;2023-02-18T08:09:10;93944.47;;;7.53;64.70
12475;BME280;6302;42.624;23.334;2023-02-18T08:11:39;93945.41;;;7.67;63.83
12475;BME280;6302;42.624;23.334;2023-02-18T08:14:06;93944.88;;;7.84;63.96
12475;BME280;6302;42.624;23.334;2023-02-18T08:16:33;93954.03;;;7.94;64.97
12475;BME280;6302;42.624;23.334;2023-02-18T08:19:00;93962.53;;;8.10;63.09
12475;BME280;6302;42.624;23.334;2023-02-18T08:21:28;93960.78;;;8.21;62.41
12475;BME280;6302;42.624;23.334;2023-02-18T08:23:56;93971.56;;;8.39;62.32
12475;BME280;6302;42.624;23.334;2023-02-18T08:26:23;93964.59;;;8.57;59.76
12475;BME280;6302;42.624;23.334;2023-02-18T08:28:52;93943.22;;;8.73;57.53
12475;BME280;6302;42.624;23.334;2023-02-18T08:31:20;93946.75;;;8.87;57.93
12475;BME280;6302;42.624;23.334;2023-02-18T08:33:47;93928.69;;;8.93;56.69
12475;BME280;6302;42.624;23.334;2023-02-18T08:36:14;93923.84;;;9.02;55.36
12475;BME280;6302;42.624;23.334;2023-02-18T08:38:41;93928.13;;;9.17;54.44
12475;BME280;6302;42.624;23.334;2023-02-18T08:41:08;93925.16;;;9.26;53.53
12475;BME280;6302;42.624;23.334;2023-02-18T08:43:36;93915.91;;;8.98;53.91
12475;BME280;6302;42.624;23.334;2023-02-18T08:46:04;93903.91;;;9.11;54.15
12475;BME280;6302;42.624;23.334;2023-02-18T08:48:31;93912.91;;;9.03;53.52
12475;BME280;6302;42.624;23.334;2023-02-18T08:50:58;93921.03;;;8.81;55.63
12475;BME280;6302;42.624;23.334;2023-02-18T08:53:25;93926.66;;;8.76;55.01
12475;BME280;6302;42.624;23.334;2023-02-18T08:55:52;93938.41;;;8.82;54.62
12475;BME280;6302;42.624;23.334;2023-02-18T08:58:18;93951.00;;;8.99;54.14
12475;BME280;6302;42.624;23.334;2023-02-18T09:00:45;93966.09;;;8.95;55.06
12475;BME280;6302;42.624;23.334;2023-02-18T09:03:14;93958.53;;;8.93;55.06
12475;BME280;6302;42.624;23.334;2023-02-18T09:05:41;93968.59;;;8.81;55.36
12475;BME280;6302;42.624;23.334;2023-02-18T09:08:08;93959.97;;;8.84;55.83
12475;BME280;6302;42.624;23.334;2023-02-18T09:10:35;93952.16;;;8.98;55.71
12475;BME280;6302;42.624;23.334;2023-02-18T09:13:03;93978.75;;;9.19;56.54
12475;BME280;6302;42.624;23.334;2023-02-18T09:15:30;93960.75;;;9.35;55.97
12475;BME280;6302;42.624;23.334;2023-02-18T09:17:57;93969.53;;;9.50;54.88
12475;BME280;6302;42.624;23.334;2023-02-18T09:20:25;93962.06;;;9.62;54.87
12475;BME280;6302;42.624;23.334;2023-02-18T09:22:52;93949.25;;;9.71;53.68
12475;BME280;6302;42.624;23.334;2023-02-18T09:25:19;93949.69;;;9.80;53.86
12475;BME280;6302;42.624;23.334;2023-02-18T09:27:46;93950.13;;;9.90;52.10
12475;BME280;6302;42.624;23.334;2023-02-18T09:30:13;93949.75;;;9.91;50.94
12475;BME280;6302;42.624;23.334;2023-02-18T09:32:40;93944.91;;;10.07;50.72
12475;BME280;6302;42.624;23.334;2023-02-18T09:35:09;93932.13;;;10.23;48.98
12475;BME280;6302;42.624;23.334;2023-02-18T09:37:37;93929.53;;;10.44;49.13
12475;BME280;6302;42.624;23.334;2023-02-18T09:40:06;93916.69;;;10.64;46.93
12475;BME280;6302;42.624;23.334;2023-02-18T09:42:34;93915.22;;;10.77;46.88
12475;BME280;6302;42.624;23.334;2023-02-18T09:45:05;93909.91;;;10.91;47.30
12475;BME280;6302;42.624;23.334;2023-02-18T09:47:35;93918.25;;;11.04;47.43
12475;BME280;6302;42.624;23.334;2023-02-18T09:50:10;93914.47;;;11.19;47.64
12475;BME280;6302;42.624;23.334;2023-02-18T09:52:42;93918.28;;;11.07;49.74
12475;BME280;6302;42.624;23.334;2023-02-18T09:55:18;93927.75;;;11.30;49.67
12475;BME280;6302;42.624;23.334;2023-02-18T09:57:49;93923.56;;;11.43;47.97
12475;BME280;6302;42.624;23.334;2023-02-18T10:00:19;93919.75;;;11.44;45.18
12475;BME280;6302;42.624;23.334;2023-02-18T10:02:53;93928.50;;;11.27;45.65
12475;BME280;6302;42.624;23.334;2023-02-18T10:05:22;93923.19;;;11.13;46.04
12475;BME280;6302;42.624;23.334;2023-02-18T10:07:53;93923.56;;;11.11;45.69
12475;BME280;6302;42.624;23.334;2023-02-18T10:10:28;93915.25;;;11.13;46.96
12475;BME280;6302;42.624;23.334;2023-02-18T10:12:57;93919.41;;;11.28;45.29
12475;BME280;6302;42.624;23.334;2023-02-18T10:15:27;93905.38;;;11.27;45.74
12475;BME280;6302;42.624;23.334;2023-02-18T10:17:56;93916.00;;;11.38;45.12
12475;BME280;6302;42.624;23.334;2023-02-18T10:20:25;93900.81;;;11.52;45.29
12475;BME280;6302;42.624;23.334;2023-02-18T10:22:57;93891.72;;;11.39;44.06
12475;BME280;6302;42.624;23.334;2023-02-18T10:25:25;93918.22;;;11.71;44.88
12475;BME280;6302;42.624;23.334;2023-02-18T10:27:53;93919.00;;;11.75;44.08
12475;BME280;6302;42.624;23.334;2023-02-18T10:30:22;93905.31;;;11.73;44.06
12475;BME280;6302;42.624;23.334;2023-02-18T10:32:54;93907.53;;;11.99;45.15
12475;BME280;6302;42.624;23.334;2023-02-18T10:35:24;93905.50;;;12.31;45.31
12475;BME280;6302;42.624;23.334;2023-02-18T10:38:03;93902.34;;;12.51;43.41
12475;BME280;6302;42.624;23.334;2023-02-18T10:40:41;93900.41;;;12.58;42.66
12475;BME280;6302;42.624;23.334;2023-02-18T10:43:18;93892.81;;;12.57;43.08
12475;BME280;6302;42.624;23.334;2023-02-18T10:45:57;93891.94;;;12.77;43.00
12475;BME280;6302;42.624;23.334;2023-02-18T10:48:39;93881.09;;;13.02;42.86
12475;BME280;6302;42.624;23.334;2023-02-18T10:51:14;93871.09;;;13.20;41.11
12475;BME280;6302;42.624;23.334;2023-02-18T10:53:44;93872.81;;;13.41;40.51
12475;BME280;6302;42.624;23.334;2023-02-18T10:56:32;93863.94;;;13.54;40.13
12475;BME280;6302;42.624;23.334;2023-02-18T10:59:01;93850.88;;;13.67;41.21
12475;BME280;6302;42.624;23.334;2023-02-18T11:01:31;93850.38;;;13.76;41.35
12475;BME280;6302;42.624;23.334;2023-02-18T11:04:12;93841.50;;;13.86;40.42
12475;BME280;6302;42.624;23.334;2023-02-18T11:06:41;93848.97;;;13.98;40.46
12475;BME280;6302;42.624;23.334;2023-02-18T11:09:25;93841.81;;;13.95;39.71
12475;BME280;6302;42.624;23.334;2023-02-18T11:11:59;93846.13;;;13.82;40.97
12475;BME280;6302;42.624;23.334;2023-02-18T11:14:42;93826.31;;;13.83;41.21
12475;BME280;6302;42.624;23.334;2023-02-18T11:17:17;93836.81;;;13.97;41.46
12475;BME280;6302;42.624;23.334;2023-02-18T11:19:52;93833.53;;;14.16;40.88
12475;BME280;6302;42.624;23.334;2023-02-18T11:22:20;93842.13;;;14.27;39.33
12475;BME280;6302;42.624;23.334;2023-02-18T11:24:54;93828.19;;;14.16;39.43
12475;BME280;6302;42.624;23.334;2023-02-18T11:27:25;93823.63;;;14.16;39.40
12475;BME280;6302;42.624;23.334;2023-02-18T11:29:58;93820.91;;;14.20;39.71
12475;BME280;6302;42.624;23.334;2023-02-18T11:32:27;93816.56;;;14.33;40.22
12475;BME280;6302;42.624;23.334;2023-02-18T11:34:55;93810.44;;;14.36;39.81
12475;BME280;6302;42.624;23.334;2023-02-18T11:37:23;93800.31;;;14.51;39.08
12475;BME280;6302;42.624;23.334;2023-02-18T11:39:53;93793.72;;;14.59;39.31
12475;BME280;6302;42.624;23.334;2023-02-18T11:42:22;93787.06;;;14.70;37.08
12475;BME280;6302;42.624;23.334;2023-02-18T11:44:52;93780.09;;;14.76;38.37
12475;BME280;6302;42.624;23.334;2023-02-18T11:47:23;93771.94;;;14.87;38.00
12475;BME280;6302;42.624;23.334;2023-02-18T11:50:16;93777.13;;;14.94;37.71
12475;BME280;6302;42.624;23.334;2023-02-18T11:52:44;93767.53;;;15.00;37.59
12475;BME280;6302;42.624;23.334;2023-02-18T11:55:16;93763.50;;;15.12;36.42
12475;BME280;6302;42.624;23.334;2023-02-18T11:57:47;93758.91;;;15.12;35.97
12475;BME280;6302;42.624;23.334;2023-02-18T12:00:20;93767.09;;;15.02;36.01
12475;BME280;6302;42.624;23.334;2023-02-18T12:02:48;93763.44;;;15.15;37.33
12475;BME280;6302;42.624;23.334;2023-02-18T12:05:18;93757.41;;;15.31;36.02
12475;BME280;6302;42.624;23.334;2023-02-18T12:07:49;93754.38;;;15.52;35.53
12475;BME280;6302;42.624;23.334;2023-02-18T12:10:25;93746.25;;;15.36;35.42
12475;BME280;6302;42.624;23.334;2023-02-18T12:12:58;93744.38;;;15.56;37.09
12475;BME280;6302;42.624;23.334;2023-02-18T12:15:36;93737.09;;;15.76;36.33
12475;BME280;6302;42.624;23.334;2023-02-18T12:18:27;93737.41;;;15.98;36.61
12475;BME280;6302;42.624;23.334;2023-02-18T12:21:08;93722.56;;;16.13;36.16
12475;BME280;6302;42.624;23.334;2023-02-18T12:23:43;93726.31;;;16.15;35.57
12475;BME280;6302;42.624;23.334;2023-02-18T12:26:23;93729.25;;;16.21;35.17
12475;BME280;6302;42.624;23.334;2023-02-18T12:29:08;93737.34;;;16.17;35.36
12475;BME280;6302;42.624;23.334;2023-02-18T12:32:09;93729.59;;;16.23;34.75
12475;BME280;6302;42.624;23.334;2023-02-18T12:34:52;93733.78;;;16.24;36.90
12475;BME280;6302;42.624;23.334;2023-02-18T12:37:48;93718.16;;;16.39;36.60
12475;BME280;6302;42.624;23.334;2023-02-18T12:40:38;93720.34;;;16.44;34.95
12475;BME280;6302;42.624;23.334;2023-02-18T12:43:13;93717.25;;;16.45;35.93
12475;BME280;6302;42.624;23.334;2023-02-18T12:45:53;93707.19;;;16.49;35.02
12475;BME280;6302;42.624;23.334;2023-02-18T12:48:42;93694.56;;;16.50;36.48
12475;BME280;6302;42.624;23.334;2023-02-18T12:51:24;93696.44;;;16.37;36.91
12475;BME280;6302;42.624;23.334;2023-02-18T12:54:26;93690.59;;;16.42;38.12
12475;BME280;6302;42.624;23.334;2023-02-18T12:57:18;93692.25;;;16.36;36.53
12475;BME280;6302;42.624;23.334;2023-02-18T13:00:10;93689.06;;;16.41;37.16
12475;BME280;6302;42.624;23.334;2023-02-18T13:03:00;93689.06;;;16.41;37.06
12475;BME280;6302;42.624;23.334;2023-02-18T13:05:41;93692.13;;;16.59;36.93
12475;BME280;6302;42.624;23.334;2023-02-18T13:08:24;93699.59;;;16.48;36.83
12475;BME280;6302;42.624;23.334;2023-02-18T13:11:03;93690.41;;;16.65;38.13
12475;BME280;6302;42.624;23.334;2023-02-18T13:13:38;93692.09;;;16.75;38.21
12475;BME280;6302;42.624;23.334;2023-02-18T13:16:10;93698.44;;;16.65;37.64
12475;BME280;6302;42.624;23.334;2023-02-18T13:18:41;93706.16;;;16.63;37.51
12475;BME280;6302;42.624;23.334;2023-02-18T13:21:11;93693.78;;;16.53;37.78
12475;BME280;6302;42.624;23.334;2023-02-18T13:23:43;93677.38;;;16.67;37.88
12475;BME280;6302;42.624;23.334;2023-02-18T13:26:16;93684.47;;;16.41;38.42
12475;BME280;6302;42.624;23.334;2023-02-18T13:28:49;93670.69;;;16.43;39.35
12475;BME280;6302;42.624;23.334;2023-02-18T13:31:34;93690.56;;;16.25;38.67